Time;durP1;ratioP1;P1;durP2;ratioP2;P2;SDS_P1;SDS_P2;PMS_P1;PMS_P2;Temp;Humidity;BMP_temperature;BMP_pressure;BME280_temperature;BME280_humidity;BME280_pressure;Samples;Min_cycle;Max_cycle;Signal;HPM_P1;HPM_P2
2023/04/14 00:01:28;;;;;;;10.20;3.45;;;7.20;78.30;;;;;;5027807;28;20189;-75
2023/04/14 00:03:54;;;;;;;9.82;3.35;;;7.10;78.30;;;;;;5018856;28;20034;-75
2023/04/14 00:06:20;;;;;;;11.65;4.28;;;7.10;78.40;;;;;;5018690;28;20433;-76
2023/04/14 00:08:45;;;;;;;10.70;3.88;;;7.10;78.50;;;;;;5025198;28;20478;-75
2023/04/14 00:11:11;;;;;;;8.25;3.47;;;7.10;78.50;;;;;;5027164;28;20443;-75
2023/04/14 00:13:37;;;;;;;11.88;4.22;;;7.10;78.70;;;;;;5020137;28;20022;-75
2023/04/14 00:16:03;;;;;;;9.65;3.67;;;7.10;78.70;;;;;;5025962;28;20090;-74
2023/04/14 00:18:28;;;;;;;6.68;3.38;;;7.00;78.70;;;;;;5023323;28;20021;-75
2023/04/14 00:20:54;;;;;;;10.10;4.07;;;7.10;78.70;;;;;;5024708;28;20141;-76
2023/04/14 00:23:20;;;;;;;9.05;4.47;;;7.00;78.80;;;;;;5028475;28;20430;-75
2023/04/14 00:25:48;;;;;;;9.82;4.15;;;6.90;79.00;;;;;;5028796;28;20612;-78
2023/04/14 00:28:13;;;;;;;11.60;3.75;;;7.00;79.00;;;;;;5025634;28;20025;-75
2023/04/14 00:30:39;;;;;;;10.52;3.45;;;7.00;79.10;;;;;;5020214;28;20022;-75
2023/04/14 00:33:05;;;;;;;10.05;3.70;;;6.90;79.10;;;;;;5026351;28;20025;-76
2023/04/14 00:35:31;;;;;;;10.77;3.75;;;7.00;79.10;;;;;;5026568;28;20022;-75
2023/04/14 00:37:57;;;;;;;11.05;3.75;;;6.90;79.30;;;;;;5026250;28;20028;-75
2023/04/14 00:40:23;;;;;;;8.10;4.03;;;6.90;79.40;;;;;;5022132;28;20109;-76
2023/04/14 00:42:49;;;;;;;8.45;3.70;;;6.80;79.30;;;;;;5021582;28;20145;-75
2023/04/14 00:45:15;;;;;;;11.27;3.75;;;6.90;79.40;;;;;;5025474;28;20044;-75
2023/04/14 00:47:45;;;;;;;12.25;3.78;;;6.80;79.30;;;;;;5023695;28;20049;-74
2023/04/14 00:50:13;;;;;;;11.35;3.60;;;6.80;79.40;;;;;;5024028;28;20133;-76
2023/04/14 00:52:42;;;;;;;9.38;4.05;;;6.80;79.50;;;;;;5036276;28;20036;-75
2023/04/14 00:55:09;;;;;;;8.82;3.40;;;6.80;79.60;;;;;;5027758;28;20500;-75
2023/04/14 00:57:35;;;;;;;11.63;4.20;;;6.70;79.60;;;;;;5026007;28;20104;-75
2023/04/14 01:00:04;;;;;;;10.13;4.18;;;6.70;79.70;;;;;;5031481;28;20077;-75
2023/04/14 01:02:30;;;;;;;9.52;3.28;;;6.80;79.80;;;;;;5024591;28;20068;-74
2023/04/14 01:04:56;;;;;;;9.88;3.95;;;6.80;79.90;;;;;;5020307;28;20108;-75
2023/04/14 01:07:24;;;;;;;7.60;3.58;;;6.80;79.80;;;;;;5025982;28;20097;-75
2023/04/14 01:09:51;;;;;;;7.82;3.70;;;6.70;79.80;;;;;;5016837;28;20117;-76
2023/04/14 01:12:25;;;;;;;8.75;3.95;;;6.70;79.70;;;;;;5022097;28;20037;-75
2023/04/14 01:15:21;;;;;;;8.25;3.85;;;6.70;79.60;;;;;;5023428;28;20498;-75
2023/04/14 01:18:20;;;;;;;10.73;4.30;;;6.70;79.60;;;;;;5024780;28;20482;-75
2023/04/14 01:20:51;;;;;;;9.90;3.35;;;6.60;79.80;;;;;;5023401;28;20018;-75
2023/04/14 01:23:34;;;;;;;6.95;3.17;;;6.60;79.80;;;;;;5027214;28;20083;-75
2023/04/14 01:26:25;;;;;;;8.70;3.67;;;6.60;79.80;;;;;;5026060;28;20068;-75
2023/04/14 01:28:54;;;;;;;8.73;3.10;;;6.60;79.70;;;;;;5023213;28;20013;-74
2023/04/14 01:31:33;;;;;;;8.95;3.72;;;6.60;79.70;;;;;;5028888;28;20038;-75
2023/04/14 01:34:10;;;;;;;8.25;3.67;;;6.60;79.80;;;;;;5024975;28;20034;-75
2023/04/14 01:36:47;;;;;;;7.15;3.20;;;6.60;79.80;;;;;;5028438;28;20496;-76
2023/04/14 01:39:18;;;;;;;8.48;3.30;;;6.40;79.90;;;;;;5029585;28;20076;-75
2023/04/14 01:41:47;;;;;;;7.97;3.95;;;6.40;79.90;;;;;;5022652;28;20471;-75
2023/04/14 01:44:17;;;;;;;9.20;3.78;;;6.40;80.10;;;;;;5030257;28;20044;-75
2023/04/14 01:46:43;;;;;;;8.90;3.35;;;6.40;80.20;;;;;;5030050;28;20038;-75
2023/04/14 01:49:10;;;;;;;7.18;3.38;;;6.40;80.30;;;;;;5027847;28;20044;-74
2023/04/14 01:51:40;;;;;;;10.15;3.72;;;6.40;80.20;;;;;;5024465;28;20037;-77
2023/04/14 01:54:08;;;;;;;10.35;4.03;;;6.40;80.30;;;;;;5029214;28;20022;-75
2023/04/14 01:56:39;;;;;;;7.57;3.10;;;6.40;80.40;;;;;;5022890;28;20343;-76
2023/04/14 01:59:05;;;;;;;7.35;3.38;;;6.30;80.50;;;;;;5026035;28;20041;-75
2023/04/14 02:01:33;;;;;;;8.23;3.45;;;6.40;80.60;;;;;;5027345;28;20091;-74
2023/04/14 02:04:00;;;;;;;5.93;2.97;;;6.30;80.60;;;;;;5025833;28;20233;-74
2023/04/14 02:06:30;;;;;;;9.48;3.92;;;6.30;80.70;;;;;;5019971;28;20074;-77
2023/04/14 02:09:01;;;;;;;7.30;3.30;;;6.30;80.80;;;;;;5027428;28;20057;-76
2023/04/14 02:11:31;;;;;;;8.88;3.05;;;6.30;80.80;;;;;;5023103;28;20530;-74
2023/04/14 02:13:59;;;;;;;9.27;3.45;;;6.30;80.70;;;;;;5030362;28;20021;-76
2023/04/14 02:16:26;;;;;;;7.50;3.33;;;6.30;80.70;;;;;;5019364;28;20505;-74
2023/04/14 02:18:52;;;;;;;9.15;3.35;;;6.20;80.60;;;;;;5026713;28;20021;-74
2023/04/14 02:21:21;;;;;;;10.57;4.07;;;6.20;80.80;;;;;;5023325;28;20124;-74
2023/04/14 02:23:47;;;;;;;7.50;3.10;;;6.20;80.90;;;;;;5029224;28;20084;-74
2023/04/14 02:26:17;;;;;;;7.40;3.10;;;6.20;81.10;;;;;;5021346;28;20497;-75
2023/04/14 02:28:49;;;;;;;7.38;3.45;;;6.20;81.00;;;;;;5022398;28;20075;-75
2023/04/14 02:31:22;;;;;;;8.43;3.92;;;6.20;81.00;;;;;;5024026;28;20173;-74
2023/04/14 02:33:52;;;;;;;8.23;3.25;;;6.20;81.00;;;;;;5027684;28;20071;-77
2023/04/14 02:36:32;;;;;;;8.30;3.25;;;6.20;81.10;;;;;;5023642;28;20049;-74
2023/04/14 02:39:02;;;;;;;7.80;3.45;;;6.20;81.10;;;;;;5028196;28;20025;-74
2023/04/14 02:41:30;;;;;;;6.80;3.30;;;6.10;81.10;;;;;;5026364;28;20136;-74
2023/04/14 02:44:17;;;;;;;8.07;3.38;;;6.10;81.10;;;;;;5024052;28;20266;-79
2023/04/14 02:47:02;;;;;;;5.75;2.88;;;6.10;81.20;;;;;;5017647;28;20083;-76
2023/04/14 02:49:32;;;;;;;6.55;2.78;;;6.10;81.30;;;;;;5025173;28;20030;-75
2023/04/14 02:51:58;;;;;;;9.95;3.72;;;6.10;81.30;;;;;;5022039;28;20044;-74
2023/04/14 02:54:24;;;;;;;7.85;3.35;;;6.10;81.30;;;;;;5024956;28;20029;-73
2023/04/14 02:56:50;;;;;;;7.32;3.25;;;6.10;81.40;;;;;;5028242;28;20381;-77
2023/04/14 02:59:18;;;;;;;8.65;3.03;;;6.10;81.50;;;;;;5028326;28;20454;-77
2023/04/14 03:01:45;;;;;;;7.85;2.97;;;6.00;81.50;;;;;;5023625;28;20463;-76
2023/04/14 03:04:12;;;;;;;9.73;3.35;;;6.00;81.40;;;;;;5034309;28;20024;-76
2023/04/14 03:06:38;;;;;;;7.50;3.15;;;5.90;81.40;;;;;;5021078;28;20033;-75
2023/04/14 03:09:05;;;;;;;8.70;3.20;;;5.80;81.30;;;;;;5033068;28;20051;-75
2023/04/14 03:11:33;;;;;;;9.18;3.20;;;5.80;81.20;;;;;;5022262;28;20041;-75
2023/04/14 03:13:59;;;;;;;5.10;2.80;;;5.80;81.30;;;;;;5032716;28;20463;-76
2023/04/14 03:16:26;;;;;;;8.35;3.22;;;5.70;81.40;;;;;;5027939;28;20522;-75
2023/04/14 03:18:53;;;;;;;6.25;2.75;;;5.70;81.60;;;;;;5032442;28;20038;-75
2023/04/14 03:21:20;;;;;;;7.50;3.30;;;5.70;81.70;;;;;;5030395;28;20035;-75
2023/04/14 03:23:47;;;;;;;6.97;2.80;;;5.70;81.90;;;;;;5029992;28;20053;-75
2023/04/14 03:26:17;;;;;;;8.18;3.25;;;5.60;82.00;;;;;;5027345;28;20038;-75
2023/04/14 03:28:45;;;;;;;7.28;3.33;;;5.60;82.00;;;;;;5044000;28;20026;-75
2023/04/14 03:31:13;;;;;;;7.90;3.17;;;5.60;82.00;;;;;;5032338;28;20412;-74
2023/04/14 03:33:42;;;;;;;6.68;2.63;;;5.60;82.00;;;;;;5027791;28;20032;-74
2023/04/14 03:36:10;;;;;;;7.30;3.38;;;5.60;82.00;;;;;;5025688;28;20041;-75
2023/04/14 03:38:36;;;;;;;9.00;3.42;;;5.60;81.90;;;;;;5024345;28;20040;-75
2023/04/14 03:41:05;;;;;;;7.88;3.40;;;5.50;81.80;;;;;;5028075;28;20109;-75
2023/04/14 03:43:32;;;;;;;7.28;2.90;;;5.60;81.80;;;;;;5031190;28;20021;-75
2023/04/14 03:45:58;;;;;;;6.88;3.25;;;5.50;81.90;;;;;;5026672;28;20040;-75
2023/04/14 03:48:26;;;;;;;7.68;2.70;;;5.50;82.00;;;;;;5032534;28;20013;-75
2023/04/14 03:50:53;;;;;;;8.13;3.58;;;5.50;82.10;;;;;;5030395;28;20101;-75
2023/04/14 03:53:20;;;;;;;7.60;3.28;;;5.50;82.30;;;;;;5029990;28;20010;-75
2023/04/14 03:55:50;;;;;;;8.00;3.63;;;5.50;82.40;;;;;;5027472;28;20094;-74
2023/04/14 03:58:17;;;;;;;8.00;3.58;;;5.60;82.50;;;;;;5025465;28;20018;-74
2023/04/14 04:00:43;;;;;;;9.70;3.70;;;5.60;82.60;;;;;;5028216;28;20063;-75
2023/04/14 04:03:09;;;;;;;8.68;3.58;;;5.60;82.70;;;;;;5029315;28;20021;-75
2023/04/14 04:05:39;;;;;;;8.20;3.78;;;5.70;82.60;;;;;;5025847;28;20029;-75
2023/04/14 04:08:05;;;;;;;11.80;4.53;;;5.60;82.60;;;;;;5028160;28;20123;-75
2023/04/14 04:10:35;;;;;;;9.88;3.78;;;5.70;82.60;;;;;;5022299;28;20105;-74
2023/04/14 04:13:05;;;;;;;8.25;4.07;;;5.70;82.70;;;;;;5028809;28;20050;-75
2023/04/14 04:15:31;;;;;;;9.63;4.00;;;5.70;82.70;;;;;;5025189;28;20028;-74
2023/04/14 04:17:58;;;;;;;9.73;4.28;;;5.60;82.80;;;;;;5023960;28;20481;-75
2023/04/14 04:20:25;;;;;;;10.63;3.80;;;5.60;82.80;;;;;;5027627;28;20450;-75
2023/04/14 04:22:54;;;;;;;7.63;4.03;;;5.60;82.80;;;;;;5030206;28;20033;-74
2023/04/14 04:25:20;;;;;;;6.93;4.30;;;5.60;82.80;;;;;;5029906;28;20105;-74
2023/04/14 04:27:46;;;;;;;9.70;4.38;;;5.60;82.80;;;;;;5031088;28;20878;-75
2023/04/14 04:30:13;;;;;;;9.48;4.28;;;5.60;82.80;;;;;;5026220;28;20013;-75
2023/04/14 04:32:39;;;;;;;9.23;4.65;;;5.60;82.80;;;;;;5023805;28;20076;-74
2023/04/14 04:35:06;;;;;;;10.88;5.30;;;5.60;82.80;;;;;;5032209;28;20037;-74
2023/04/14 04:37:33;;;;;;;8.25;4.35;;;5.60;82.80;;;;;;5026569;28;20040;-76
2023/04/14 04:39:59;;;;;;;8.77;4.47;;;5.60;82.90;;;;;;5027213;28;20121;-74
2023/04/14 04:42:25;;;;;;;9.05;4.28;;;5.60;82.80;;;;;;5026151;28;20448;-75
2023/04/14 04:44:51;;;;;;;11.98;4.53;;;5.60;82.80;;;;;;5033786;28;20033;-75
2023/04/14 04:47:16;;;;;;;9.32;4.57;;;5.60;82.90;;;;;;5024513;28;20077;-74
2023/04/14 04:49:42;;;;;;;8.93;4.40;;;5.60;83.00;;;;;;5035124;28;20024;-75
2023/04/14 04:52:11;;;;;;;8.68;4.10;;;5.70;83.00;;;;;;5021960;28;20048;-74
2023/04/14 04:54:36;;;;;;;8.63;4.50;;;5.70;83.00;;;;;;5031183;28;20024;-75
2023/04/14 04:57:02;;;;;;;10.02;5.28;;;5.80;83.00;;;;;;5029356;28;20033;-74
2023/04/14 04:59:28;;;;;;;12.27;5.75;;;5.80;83.00;;;;;;5037879;28;20040;-77
2023/04/14 05:01:53;;;;;;;11.07;5.88;;;5.90;82.90;;;;;;5028799;28;20080;-78
2023/04/14 05:04:20;;;;;;;11.98;6.53;;;5.80;82.90;;;;;;5031154;28;20029;-75
2023/04/14 05:06:46;;;;;;;11.23;7.32;;;5.90;82.90;;;;;;5032857;28;20087;-77
2023/04/14 05:09:11;;;;;;;9.85;6.68;;;6.00;82.90;;;;;;5026649;28;20446;-75
2023/04/14 05:11:37;;;;;;;9.35;5.50;;;6.00;82.80;;;;;;5031547;28;20053;-77
2023/04/14 05:14:03;;;;;;;9.73;5.60;;;6.10;82.70;;;;;;5026096;28;20048;-78
2023/04/14 05:16:29;;;;;;;12.82;5.63;;;6.10;82.70;;;;;;5032689;28;20510;-77
2023/04/14 05:18:55;;;;;;;14.13;6.82;;;6.10;82.60;;;;;;5031842;28;20033;-77
2023/04/14 05:21:21;;;;;;;13.13;7.07;;;6.10;82.50;;;;;;5030852;28;20098;-78
2023/04/14 05:23:47;;;;;;;12.38;6.50;;;6.20;82.40;;;;;;5034607;28;20026;-78
2023/04/14 05:26:13;;;;;;;12.90;7.78;;;6.20;82.30;;;;;;5029157;28;20037;-77
2023/04/14 05:28:39;;;;;;;14.30;7.70;;;6.30;82.20;;;;;;5035461;28;20013;-78
2023/04/14 05:31:06;;;;;;;15.15;6.80;;;6.30;82.30;;;;;;5032494;28;20025;-77
2023/04/14 05:33:32;;;;;;;14.45;6.75;;;6.40;82.40;;;;;;5027534;28;20053;-77
2023/04/14 05:35:57;;;;;;;11.73;5.95;;;6.40;82.20;;;;;;5030391;28;20128;-79
2023/04/14 05:38:23;;;;;;;15.27;6.20;;;6.60;82.10;;;;;;5030747;28;20036;-77
2023/04/14 05:40:49;;;;;;;16.02;6.65;;;6.60;81.80;;;;;;5034280;28;20392;-78
2023/04/14 05:43:15;;;;;;;14.95;5.63;;;6.60;81.90;;;;;;5033671;28;20023;-79
2023/04/14 05:45:41;;;;;;;12.10;5.70;;;6.70;81.60;;;;;;5034227;28;20028;-76
2023/04/14 05:48:08;;;;;;;12.23;5.50;;;6.70;81.60;;;;;;5033026;28;20029;-75
2023/04/14 05:50:34;;;;;;;16.08;5.43;;;6.80;81.60;;;;;;5029936;28;20504;-77
2023/04/14 05:53:00;;;;;;;12.38;6.22;;;6.90;81.40;;;;;;5034465;28;20035;-77
2023/04/14 05:55:26;;;;;;;11.38;5.55;;;7.00;81.30;;;;;;5033236;28;20634;-77
2023/04/14 05:57:52;;;;;;;13.70;5.97;;;7.00;81.00;;;;;;5026243;28;20032;-76
2023/04/14 06:00:18;;;;;;;13.07;6.60;;;7.10;80.90;;;;;;5034437;28;20033;-75
2023/04/14 06:02:44;;;;;;;14.20;6.85;;;7.20;80.80;;;;;;5030650;28;20025;-76
2023/04/14 06:05:11;;;;;;;15.18;7.47;;;7.30;80.50;;;;;;5028318;28;20017;-78
2023/04/14 06:07:37;;;;;;;13.88;7.47;;;7.30;80.40;;;;;;5021411;28;20045;-77
2023/04/14 06:10:04;;;;;;;15.20;7.30;;;7.40;80.40;;;;;;5027865;28;20051;-77
2023/04/14 06:12:29;;;;;;;16.45;7.88;;;7.40;80.40;;;;;;5023350;28;20104;-77
2023/04/14 06:14:55;;;;;;;12.98;7.20;;;7.50;80.20;;;;;;5029776;28;20231;-77
2023/04/14 06:17:21;;;;;;;16.45;8.57;;;7.60;80.30;;;;;;5030017;28;20426;-77
2023/04/14 06:19:47;;;;;;;16.10;7.60;;;7.60;79.80;;;;;;5023860;28;20409;-77
2023/04/14 06:22:18;;;;;;;18.33;7.47;;;7.70;80.00;;;;;;5034772;28;20108;-77
2023/04/14 06:24:47;;;;;;;17.05;8.40;;;7.80;79.50;;;;;;5028960;28;20104;-77
2023/04/14 06:27:13;;;;;;;19.42;9.07;;;8.00;79.40;;;;;;5034970;28;20037;-77
2023/04/14 06:29:39;;;;;;;21.58;10.05;;;8.00;79.30;;;;;;5029955;28;20405;-77
2023/04/14 06:32:05;;;;;;;21.38;9.05;;;8.00;79.10;;;;;;5034258;28;20029;-78
2023/04/14 06:34:30;;;;;;;26.92;9.95;;;8.10;79.30;;;;;;5030772;28;20032;-76
2023/04/14 06:36:57;;;;;;;20.33;9.75;;;8.10;79.30;;;;;;5031370;28;20470;-77
2023/04/14 06:39:23;;;;;;;18.45;9.15;;;8.10;78.70;;;;;;5029076;28;20071;-77
2023/04/14 06:41:49;;;;;;;18.35;8.50;;;8.10;79.10;;;;;;5024874;28;20022;-77
2023/04/14 06:44:15;;;;;;;18.13;8.60;;;8.10;79.30;;;;;;5036985;28;20468;-76
2023/04/14 06:46:40;;;;;;;16.45;7.50;;;8.20;79.60;;;;;;5025065;28;20049;-76
2023/04/14 06:49:07;;;;;;;14.15;7.60;;;8.20;78.90;;;;;;5027977;28;20057;-76
2023/04/14 06:51:33;;;;;;;15.85;7.15;;;8.20;79.00;;;;;;5021837;28;20038;-76
2023/04/14 06:53:59;;;;;;;13.25;6.70;;;8.30;78.90;;;;;;5022363;28;20061;-76
2023/04/14 06:56:25;;;;;;;12.70;6.53;;;8.30;79.00;;;;;;5026167;28;20129;-77
2023/04/14 06:58:51;;;;;;;14.57;7.07;;;8.40;78.50;;;;;;5033202;28;20116;-77
2023/04/14 07:01:16;;;;;;;13.13;6.90;;;8.50;78.50;;;;;;5031606;28;20113;-77
2023/04/14 07:03:42;;;;;;;13.00;6.00;;;8.70;78.10;;;;;;5030751;28;20025;-77
2023/04/14 07:06:15;;;;;;;12.93;6.68;;;8.90;77.30;;;;;;5025049;28;20553;-77
2023/04/14 07:08:41;;;;;;;13.68;7.40;;;9.10;77.10;;;;;;5031050;28;20017;-77
2023/04/14 07:11:09;;;;;;;10.70;5.55;;;9.10;76.50;;;;;;5026259;28;20029;-77
2023/04/14 07:13:36;;;;;;;12.07;5.25;;;9.20;76.00;;;;;;5026962;28;20208;-77
2023/04/14 07:16:02;;;;;;;9.45;5.10;;;9.10;75.40;;;;;;5027607;28;20068;-77
2023/04/14 07:18:30;;;;;;;11.23;5.28;;;9.30;75.90;;;;;;5027775;28;20030;-77
2023/04/14 07:20:58;;;;;;;11.18;5.45;;;9.50;75.60;;;;;;5028109;28;20045;-77
2023/04/14 07:23:24;;;;;;;10.93;5.40;;;9.60;74.90;;;;;;5026910;28;20056;-77
2023/04/14 07:25:51;;;;;;;10.70;5.10;;;9.70;75.00;;;;;;5028009;28;20177;-76
2023/04/14 07:28:18;;;;;;;10.85;4.95;;;9.90;74.60;;;;;;5028295;28;20025;-76
2023/04/14 07:30:44;;;;;;;10.55;4.38;;;10.00;74.10;;;;;;5025520;28;20079;-76
2023/04/14 07:33:11;;;;;;;11.18;4.63;;;10.10;73.70;;;;;;5026180;28;20022;-76
2023/04/14 07:35:37;;;;;;;10.98;4.50;;;10.40;73.30;;;;;;5021155;28;20032;-76
2023/04/14 07:38:03;;;;;;;10.25;4.30;;;10.50;72.60;;;;;;5026717;28;20108;-76
2023/04/14 07:40:28;;;;;;;9.45;4.15;;;10.60;72.20;;;;;;5028945;28;20331;-77
2023/04/14 07:42:54;;;;;;;9.95;4.38;;;10.70;72.20;;;;;;5020778;28;20057;-75
2023/04/14 07:45:21;;;;;;;9.95;3.72;;;10.80;71.30;;;;;;5026755;28;20033;-75
2023/04/14 07:47:47;;;;;;;8.95;4.07;;;11.10;70.50;;;;;;5020190;28;20371;-77
2023/04/14 07:50:12;;;;;;;7.97;3.78;;;11.20;70.80;;;;;;5022909;28;20033;-77
2023/04/14 07:52:38;;;;;;;8.52;3.47;;;11.40;69.40;;;;;;5022809;28;20037;-78
2023/04/14 07:55:04;;;;;;;9.57;3.65;;;11.40;68.30;;;;;;5043190;28;20029;-77
2023/04/14 07:57:30;;;;;;;10.10;3.55;;;11.20;68.60;;;;;;5021085;28;20088;-77
2023/04/14 07:59:55;;;;;;;8.10;3.38;;;11.20;68.00;;;;;;5030288;28;20045;-77
2023/04/14 08:02:21;;;;;;;8.85;3.72;;;11.10;68.40;;;;;;5030713;28;20033;-77
2023/04/14 08:04:47;;;;;;;7.82;3.00;;;11.40;68.70;;;;;;5029204;28;20028;-77
2023/04/14 08:07:13;;;;;;;8.05;3.25;;;11.60;68.30;;;;;;5024605;28;20378;-77
2023/04/14 08:09:39;;;;;;;10.60;3.70;;;11.60;67.10;;;;;;5024207;28;20026;-78
2023/04/14 08:12:04;;;;;;;9.13;3.60;;;11.70;66.20;;;;;;5024787;28;20033;-78
2023/04/14 08:14:30;;;;;;;8.98;3.75;;;11.70;67.20;;;;;;5024340;28;20056;-77
2023/04/14 08:16:56;;;;;;;9.30;3.92;;;11.90;67.60;;;;;;5023020;28;20042;-77
2023/04/14 08:19:21;;;;;;;8.43;3.60;;;12.00;66.60;;;;;;5022541;28;20083;-77
2023/04/14 08:21:47;;;;;;;6.55;3.33;;;12.00;66.30;;;;;;5024740;28;20451;-78
2023/04/14 08:24:13;;;;;;;8.80;3.88;;;12.00;67.20;;;;;;5025318;28;20025;-79
2023/04/14 08:26:39;;;;;;;7.07;3.67;;;12.10;67.20;;;;;;5023716;28;20033;-78
2023/04/14 08:29:05;;;;;;;7.93;3.90;;;12.20;65.30;;;;;;5023673;28;20083;-77
2023/04/14 08:31:32;;;;;;;7.68;3.78;;;12.50;66.40;;;;;;5030479;28;20029;-76
2023/04/14 08:33:57;;;;;;;8.27;3.63;;;12.60;65.70;;;;;;5026783;28;20101;-77
2023/04/14 08:36:23;;;;;;;7.43;3.33;;;12.70;64.70;;;;;;5027834;28;20128;-77
2023/04/14 08:38:49;;;;;;;6.38;3.28;;;12.80;64.90;;;;;;5026622;28;20026;-78
2023/04/14 08:41:18;;;;;;;6.70;3.30;;;12.70;64.10;;;;;;5025284;28;20134;-78
2023/04/14 08:43:44;;;;;;;7.53;3.75;;;12.80;64.00;;;;;;5022602;28;20021;-77
2023/04/14 08:46:10;;;;;;;6.95;2.92;;;12.70;64.20;;;;;;5025191;28;20044;-77
2023/04/14 08:48:38;;;;;;;7.22;2.72;;;12.60;63.60;;;;;;5029679;28;20034;-77
2023/04/14 08:51:19;;;;;;;7.45;3.40;;;12.70;63.70;;;;;;5027823;28;20033;-77
2023/04/14 08:53:47;;;;;;;8.40;3.22;;;12.80;63.60;;;;;;5025804;28;20033;-77
2023/04/14 08:56:15;;;;;;;8.00;3.17;;;12.80;63.00;;;;;;5023321;28;20029;-77
2023/04/14 08:58:41;;;;;;;8.65;3.42;;;12.70;64.10;;;;;;5020653;28;20045;-78
2023/04/14 09:01:08;;;;;;;6.63;2.75;;;13.00;64.60;;;;;;5028159;28;20079;-77
2023/04/14 09:03:36;;;;;;;6.97;2.85;;;13.30;63.10;;;;;;5025062;28;20022;-77
2023/04/14 09:06:02;;;;;;;7.70;3.05;;;13.60;63.50;;;;;;5025052;28;20025;-77
2023/04/14 09:08:32;;;;;;;7.30;2.63;;;13.60;61.10;;;;;;5032873;28;20033;-78
2023/04/14 09:11:00;;;;;;;7.55;2.50;;;13.70;61.90;;;;;;5024638;28;20543;-77
2023/04/14 09:13:27;;;;;;;7.15;2.70;;;13.60;60.50;;;;;;5022496;28;20381;-78
2023/04/14 09:15:53;;;;;;;7.13;2.88;;;13.70;61.10;;;;;;5018046;28;20014;-79
2023/04/14 09:18:20;;;;;;;6.10;2.67;;;13.60;59.70;;;;;;5026090;28;20014;-77
2023/04/14 09:20:52;;;;;;;7.68;3.00;;;13.60;60.00;;;;;;5023314;28;20031;-77
2023/04/14 09:23:21;;;;;;;7.85;3.20;;;13.50;61.00;;;;;;5022769;28;20466;-77
2023/04/14 09:25:46;;;;;;;7.72;3.33;;;13.40;61.50;;;;;;5019271;28;20032;-76
2023/04/14 09:28:13;;;;;;;6.40;2.80;;;13.70;59.90;;;;;;5046716;28;20038;-77
2023/04/14 09:30:39;;;;;;;8.60;3.10;;;13.40;60.10;;;;;;5021671;28;20473;-76
2023/04/14 09:33:06;;;;;;;8.50;2.65;;;13.70;61.10;;;;;;5023853;28;20026;-77
2023/04/14 09:35:45;;;;;;;7.57;2.80;;;13.90;60.90;;;;;;5025239;28;20021;-76
2023/04/14 09:38:11;;;;;;;6.53;2.60;;;13.90;59.50;;;;;;5026618;28;20501;-76
2023/04/14 09:40:38;;;;;;;9.30;3.10;;;14.00;58.80;;;;;;5030023;28;20018;-76
2023/04/14 09:43:03;;;;;;;7.15;3.25;;;14.30;58.10;;;;;;5021904;28;20098;-76
2023/04/14 09:45:44;;;;;;;4.80;2.30;;;14.20;58.10;;;;;;5029785;28;20467;-76
2023/04/14 09:48:11;;;;;;;9.82;3.03;;;14.10;58.50;;;;;;5028895;28;20112;-76
2023/04/14 09:51:09;;;;;;;8.73;3.03;;;14.10;59.00;;;;;;5033438;28;20537;-75
2023/04/14 09:53:37;;;;;;;13.85;2.78;;;14.50;57.90;;;;;;5021352;28;20069;-76
2023/04/14 09:56:05;;;;;;;6.50;2.90;;;14.40;57.90;;;;;;5022519;28;20574;-76
2023/04/14 09:58:39;;;;;;;6.63;2.92;;;14.60;58.30;;;;;;5019836;28;20061;-80
2023/04/14 10:01:10;;;;;;;;;;;14.20;57.60;;;;;;5025194;28;20057;-79
2023/04/14 10:03:41;;;;;;;8.00;2.97;;;14.30;58.30;;;;;;5023968;28;19914;-79
2023/04/14 10:06:19;;;;;;;5.50;2.78;;;14.40;58.30;;;;;;5027134;28;20059;-79
2023/04/14 10:08:50;;;;;;;8.05;2.88;;;14.30;58.60;;;;;;5023182;28;20029;-80
2023/04/14 10:11:31;;;;;;;8.88;3.00;;;14.60;59.00;;;;;;5021409;28;20057;-78
2023/04/14 10:14:05;;;;;;;9.18;2.58;;;14.80;57.50;;;;;;5026560;28;20056;-79
2023/04/14 10:16:32;;;;;;;5.53;2.38;;;14.80;57.10;;;;;;5026428;28;20076;-78
2023/04/14 10:18:58;;;;;;;4.40;2.00;;;14.80;55.90;;;;;;5031258;28;20117;-81
2023/04/14 10:21:24;;;;;;;6.15;2.47;;;14.80;55.10;;;;;;5024597;28;20469;-80
2023/04/14 10:23:51;;;;;;;4.93;2.20;;;14.60;55.30;;;;;;5022877;28;20033;-77
2023/04/14 10:26:19;;;;;;;5.40;2.20;;;14.80;56.30;;;;;;5012742;28;20052;-77
2023/04/14 10:28:47;;;;;;;6.75;2.15;;;15.00;54.70;;;;;;5022080;28;20021;-78
2023/04/14 10:31:22;;;;;;;8.05;2.70;;;15.10;54.20;;;;;;5011933;28;20049;-79
2023/04/14 10:33:47;;;;;;;7.10;2.50;;;15.10;54.90;;;;;;5025860;28;20093;-77
2023/04/14 10:36:23;;;;;;;8.52;2.75;;;15.30;54.50;;;;;;5023140;28;20041;-81
2023/04/14 10:38:49;;;;;;;6.65;2.25;;;15.40;54.80;;;;;;5012226;28;20036;-78
2023/04/14 10:41:14;;;;;;;5.78;2.40;;;15.60;54.50;;;;;;5022164;28;20025;-79
2023/04/14 10:43:40;;;;;;;6.05;2.03;;;15.90;53.10;;;;;;5016071;28;20029;-76
2023/04/14 10:46:08;;;;;;;7.60;2.50;;;15.90;52.20;;;;;;5019101;28;20488;-75
2023/04/14 10:48:38;;;;;;;5.15;1.90;;;16.00;50.80;;;;;;5025709;28;20031;-73
2023/04/14 10:51:07;;;;;;;5.43;2.00;;;16.10;52.20;;;;;;5020347;28;20257;-74
2023/04/14 10:53:49;;;;;;;5.45;2.08;;;16.10;50.90;;;;;;5017610;28;20033;-74
2023/04/14 10:56:15;;;;;;;5.55;1.80;;;15.80;51.00;;;;;;5015179;28;20099;-74
2023/04/14 10:58:40;;;;;;;7.13;2.35;;;15.80;50.80;;;;;;5045451;28;20053;-75
2023/04/14 11:01:30;;;;;;;5.43;1.77;;;16.00;50.80;;;;;;5021038;28;20045;-75
2023/04/14 11:04:07;;;;;;;6.15;2.42;;;15.70;51.60;;;;;;5021382;28;20129;-74
2023/04/14 11:06:54;;;;;;;4.22;1.80;;;15.60;51.80;;;;;;5034306;28;20073;-77
2023/04/14 11:09:28;;;;;;;7.60;2.15;;;15.60;51.40;;;;;;5020578;28;20545;-73
2023/04/14 11:11:59;;;;;;;5.75;2.08;;;15.30;52.80;;;;;;5019831;28;20300;-76
2023/04/14 11:14:26;;;;;;;7.13;2.30;;;15.40;55.00;;;;;;5015728;28;20100;-77
2023/04/14 11:16:57;;;;;;;3.75;1.70;;;15.50;53.00;;;;;;5016774;28;20451;-76
2023/04/14 11:19:24;;;;;;;4.00;1.65;;;15.10;51.10;;;;;;5023453;28;20485;-74
2023/04/14 11:21:52;;;;;;;4.47;1.88;;;15.00;52.50;;;;;;5028991;28;20041;-73
2023/04/14 11:24:21;;;;;;;6.22;1.85;;;15.10;52.60;;;;;;5017169;28;20026;-75
2023/04/14 11:26:47;;;;;;;3.83;1.77;;;15.30;53.20;;;;;;5023326;28;20034;-75
2023/04/14 11:29:13;;;;;;;5.38;1.50;;;15.60;52.30;;;;;;5026037;28;20033;-74
2023/04/14 11:31:38;;;;;;;5.55;1.60;;;16.00;50.50;;;;;;5024076;28;20046;-75
2023/04/14 11:34:05;;;;;;;3.25;1.50;;;16.40;50.00;;;;;;5023280;28;20018;-73
2023/04/14 11:36:35;;;;;;;6.20;1.80;;;16.30;50.30;;;;;;5014179;28;20100;-75
2023/04/14 11:39:01;;;;;;;6.03;1.52;;;16.00;48.40;;;;;;5015881;28;20029;-75
2023/04/14 11:41:29;;;;;;;6.03;1.60;;;15.50;49.90;;;;;;5018214;28;20433;-78
2023/04/14 11:43:54;;;;;;;5.32;1.75;;;15.00;51.10;;;;;;5016669;28;20083;-77
2023/04/14 11:46:21;;;;;;;5.72;1.60;;;15.00;51.80;;;;;;5023907;28;20488;-77
2023/04/14 11:48:46;;;;;;;3.88;1.30;;;15.40;52.30;;;;;;5013116;28;20040;-77
2023/04/14 11:51:12;;;;;;;4.97;1.67;;;15.40;50.90;;;;;;5016616;28;20030;-75
2023/04/14 11:53:39;;;;;;;4.30;1.65;;;15.60;50.30;;;;;;5012837;28;20037;-77
2023/04/14 11:56:08;;;;;;;6.35;1.33;;;15.50;51.70;;;;;;5017723;28;20172;-78
2023/04/14 11:58:34;;;;;;;4.80;1.40;;;15.50;51.00;;;;;;5021651;28;20052;-77
2023/04/14 12:01:00;;;;;;;6.35;1.48;;;15.60;51.60;;;;;;5017862;28;20030;-77
2023/04/14 12:03:27;;;;;;;5.75;1.48;;;15.70;50.70;;;;;;5016770;28;20262;-77
2023/04/14 12:06:00;;;;;;;4.07;1.23;;;15.70;50.90;;;;;;5018175;28;20028;-77
2023/04/14 12:08:28;;;;;;;2.88;1.20;;;15.40;51.60;;;;;;5021679;28;20604;-76
2023/04/14 12:10:55;;;;;;;4.18;1.40;;;15.10;51.30;;;;;;5007616;28;20491;-76
2023/04/14 12:13:21;;;;;;;3.90;1.42;;;15.10;51.10;;;;;;5020749;28;20021;-78
2023/04/14 12:15:46;;;;;;;4.43;1.30;;;15.50;52.20;;;;;;5018672;28;20103;-78
2023/04/14 12:18:16;;;;;;;4.97;1.30;;;15.80;51.50;;;;;;5021815;28;20108;-79
2023/04/14 12:20:52;;;;;;;6.82;1.35;;;15.90;50.80;;;;;;5021508;28;20076;-78
2023/04/14 12:23:18;;;;;;;3.60;1.55;;;15.80;51.60;;;;;;5026179;28;20025;-78
2023/04/14 12:25:44;;;;;;;4.53;1.48;;;15.70;51.60;;;;;;5009179;28;20063;-78
2023/04/14 12:28:28;;;;;;;6.13;1.30;;;15.60;52.00;;;;;;5020290;28;20041;-78
2023/04/14 12:31:02;;;;;;;4.63;1.10;;;15.90;51.70;;;;;;5012171;28;20364;-78
2023/04/14 12:33:29;;;;;;;2.38;1.15;;;16.30;49.40;;;;;;5019708;28;20033;-78
2023/04/14 12:36:05;;;;;;;3.30;1.00;;;16.00;48.90;;;;;;5019955;28;20068;-78
2023/04/14 12:38:32;;;;;;;2.92;1.30;;;16.10;48.90;;;;;;5024854;28;20060;-79
2023/04/14 12:40:57;;;;;;;3.42;1.17;;;15.90;49.90;;;;;;5019545;28;20052;-80
2023/04/14 12:43:31;;;;;;;2.92;1.20;;;15.90;50.80;;;;;;5016357;28;20467;-78
2023/04/14 12:45:57;;;;;;;3.35;1.08;;;15.70;49.80;;;;;;5017857;28;20389;-76
2023/04/14 12:48:37;;;;;;;6.03;1.10;;;15.70;49.40;;;;;;5000962;28;20067;-78
2023/04/14 12:51:10;;;;;;;2.80;1.20;;;15.60;50.10;;;;;;5011144;28;20073;-77
2023/04/14 12:53:36;;;;;;;4.40;1.20;;;15.30;48.80;;;;;;5006108;28;20030;-78
2023/04/14 12:56:10;;;;;;;2.38;1.33;;;15.30;49.70;;;;;;5010436;28;20055;-75